Time;durP1;ratioP1;P1;durP2;ratioP2;P2;SDS_P1;SDS_P2;PMS_P1;PMS_P2;Temp;Humidity;BMP_temperature;BMP_pressure;BME280_temperature;BME280_humidity;BME280_pressure;Samples;Min_cycle;Max_cycle;Signal;HPM_P1;HPM_P2
2023/08/08 00:01:52;;;;;;;7.28;3.85;;;;;;;12.40;100.00;101451.06;4936532;29;20031;-81
2023/08/08 00:04:17;;;;;;;6.25;3.90;;;;;;;12.49;100.00;101460.84;4936663;29;20028;-81
2023/08/08 00:06:43;;;;;;;8.80;4.20;;;;;;;12.38;100.00;101433.00;4936521;29;20027;-81
2023/08/08 00:09:08;;;;;;;9.02;4.28;;;;;;;12.58;100.00;101461.09;4919674;29;20098;-82
2023/08/08 00:11:34;;;;;;;6.78;4.07;;;;;;;12.40;100.00;101419.97;4936691;29;20114;-81
2023/08/08 00:13:59;;;;;;;12.45;4.30;;;;;;;12.60;100.00;101464.44;4936502;29;20042;-80
2023/08/08 00:16:25;;;;;;;9.65;4.18;;;;;;;12.57;100.00;101459.44;4936362;29;20107;-82
2023/08/08 00:18:53;;;;;;;10.55;4.38;;;;;;;12.48;100.00;101434.09;4936451;29;20032;-80
2023/08/08 00:21:18;;;;;;;11.38;4.70;;;;;;;11.84;100.00;101325.84;4935814;29;20094;-81
2023/08/08 00:23:44;;;;;;;9.55;4.50;;;;;;;12.73;100.00;101454.16;4936224;29;20039;-81
2023/08/08 00:26:09;;;;;;;9.13;4.40;;;;;;;12.73;100.00;101458.50;4936255;29;20036;-80
2023/08/08 00:28:34;;;;;;;8.50;4.20;;;;;;;12.74;100.00;101463.59;4936022;29;20024;-80
2023/08/08 00:31:00;;;;;;;8.23;4.30;;;;;;;12.58;100.00;101427.41;4936322;29;20031;-80
2023/08/08 00:33:25;;;;;;;8.73;4.45;;;;;;;12.78;100.00;101456.44;4936241;29;20020;-80
2023/08/08 00:35:50;;;;;;;10.85;4.97;;;;;;;12.79;100.00;101455.53;4935991;29;20028;-80
2023/08/08 00:38:18;;;;;;;7.63;4.70;;;;;;;12.63;100.00;101427.97;4935976;29;20470;-80
2023/08/08 00:40:43;;;;;;;9.25;4.78;;;;;;;12.69;100.00;101444.09;4936052;29;20103;-80
2023/08/08 00:43:08;;;;;;;9.48;4.20;;;;;;;12.79;100.00;101453.78;4935796;29;20032;-80
2023/08/08 00:45:34;;;;;;;8.82;4.43;;;;;;;12.77;100.00;101449.59;4935042;29;20024;-80
2023/08/08 00:48:00;;;;;;;7.13;4.18;;;;;;;12.81;100.00;101449.34;4936043;29;20028;-80
2023/08/08 00:50:25;;;;;;;9.30;4.38;;;;;;;12.77;100.00;101440.06;4935748;29;20035;-80
2023/08/08 00:52:51;;;;;;;8.35;4.50;;;;;;;12.79;100.00;101432.22;4935748;29;20363;-80
2023/08/08 00:55:16;;;;;;;9.13;4.15;;;;;;;12.86;100.00;101439.50;4935633;29;20020;-81
2023/08/08 00:57:42;;;;;;;9.35;3.97;;;;;;;12.84;100.00;101433.56;4935568;29;20024;-80
2023/08/08 01:00:09;;;;;;;7.57;4.40;;;;;;;12.94;100.00;101451.97;4935599;29;20032;-80
2023/08/08 01:02:35;;;;;;;8.52;4.53;;;;;;;12.98;100.00;101450.00;4935696;29;20032;-80
2023/08/08 01:05:01;;;;;;;7.28;4.20;;;;;;;12.88;100.00;101432.47;4935530;29;20038;-81
2023/08/08 01:07:35;;;;;;;8.32;4.30;;;;;;;13.01;100.00;101455.84;4935511;29;20028;-81
2023/08/08 01:10:15;;;;;;;9.98;4.47;;;;;;;12.82;100.00;101427.66;4935603;29;20385;-81
2023/08/08 01:12:45;;;;;;;6.57;4.00;;;;;;;12.76;100.00;101409.06;4935484;29;20023;-81
2023/08/08 01:15:12;;;;;;;8.55;4.32;;;;;;;13.03;100.00;101443.63;4935348;29;20040;-80
2023/08/08 01:17:39;;;;;;;7.38;3.85;;;;;;;13.02;100.00;101447.16;4935238;29;20031;-81
2023/08/08 01:20:06;;;;;;;10.68;4.72;;;;;;;12.92;100.00;101423.56;4935329;29;20036;-80
2023/08/08 01:23:08;;;;;;;8.20;4.35;;;;;;;13.02;100.00;101430.75;4935134;29;20055;-81
2023/08/08 01:25:34;;;;;;;9.88;4.82;;;;;;;12.84;100.00;101428.41;4935439;29;20449;-81
2023/08/08 01:28:00;;;;;;;9.32;4.55;;;;;;;12.91;100.00;101441.81;4918313;29;20032;-81
2023/08/08 01:30:25;;;;;;;9.27;4.88;;;;;;;12.87;100.00;101442.91;4935182;29;20359;-81
2023/08/08 01:32:50;;;;;;;8.77;4.80;;;;;;;12.85;100.00;101437.00;4935009;29;20378;-81
2023/08/08 01:35:16;;;;;;;9.02;4.45;;;;;;;12.84;100.00;101436.16;4935312;29;20493;-80
2023/08/08 01:37:49;;;;;;;9.70;4.88;;;;;;;12.83;100.00;101431.91;4935260;29;20469;-81
2023/08/08 01:40:19;;;;;;;9.77;4.80;;;;;;;12.69;100.00;101413.00;4935325;29;20107;-80
2023/08/08 01:42:46;;;;;;;11.90;5.20;;;;;;;12.84;100.00;101432.75;4935147;29;20591;-81
2023/08/08 01:45:13;;;;;;;9.75;4.95;;;;;;;12.84;100.00;101431.00;4935055;29;20039;-81
2023/08/08 01:47:38;;;;;;;8.90;5.00;;;;;;;12.57;100.00;101391.25;4935013;29;20107;-80
2023/08/08 01:50:04;;;;;;;10.30;5.43;;;;;;;12.84;100.00;101430.16;4935437;29;20478;-82
2023/08/08 01:52:29;;;;;;;9.30;5.30;;;;;;;12.85;100.00;101435.25;4935165;29;20038;-82
2023/08/08 01:54:55;;;;;;;9.60;5.53;;;;;;;12.83;100.00;101433.69;4935107;29;20032;-82
2023/08/08 01:57:20;;;;;;;9.50;5.22;;;;;;;12.62;100.00;101396.97;4938139;29;20031;-82
2023/08/08 01:59:46;;;;;;;9.30;5.15;;;;;;;12.79;100.00;101425.28;4920887;29;20366;-82
2023/08/08 02:02:11;;;;;;;10.90;5.88;;;;;;;12.78;100.00;101413.25;4938607;29;20077;-81
2023/08/08 02:04:37;;;;;;;12.60;6.30;;;;;;;12.73;100.00;101411.84;4938797;29;20063;-82
2023/08/08 02:07:02;;;;;;;9.52;5.43;;;;;;;12.74;100.00;101413.53;4938940;29;20055;-82
2023/08/08 02:09:27;;;;;;;10.48;5.40;;;;;;;12.65;100.00;101407.16;4939189;29;20024;-82
2023/08/08 02:11:53;;;;;;;10.07;5.35;;;;;;;12.57;100.00;101409.38;4938812;29;20039;-82
2023/08/08 02:14:18;;;;;;;11.85;5.50;;;;;;;12.49;100.00;101415.06;4938358;29;20024;-82
2023/08/08 02:16:43;;;;;;;10.48;5.57;;;;;;;12.38;100.00;101401.06;4938592;29;20032;-82
2023/08/08 02:19:09;;;;;;;12.75;6.18;;;;;;;12.42;100.00;101416.34;4938645;29;20034;-81
2023/08/08 02:21:34;;;;;;;12.32;6.32;;;;;;;12.41;100.00;101411.28;4938550;29;20397;-82
2023/08/08 02:23:59;;;;;;;12.60;6.70;;;;;;;12.34;100.00;101397.84;4938758;29;20043;-82
2023/08/08 02:26:25;;;;;;;13.60;6.43;;;;;;;12.26;100.00;101371.59;4938424;29;20028;-82
2023/08/08 02:28:51;;;;;;;11.23;6.10;;;;;;;12.52;100.00;101403.66;4938291;29;20075;-80
2023/08/08 02:31:20;;;;;;;13.13;7.13;;;;;;;12.52;100.00;101403.66;4938273;29;20020;-80
2023/08/08 02:33:49;;;;;;;13.05;5.90;;;;;;;12.43;100.00;101386.09;4936747;29;20593;-81
2023/08/08 02:36:14;;;;;;;11.27;6.28;;;;;;;12.58;100.00;101395.50;4938595;29;20131;-79
2023/08/08 02:38:39;;;;;;;12.98;6.47;;;;;;;12.46;100.00;101375.53;4938284;29;20055;-80
2023/08/08 02:41:04;;;;;;;14.32;6.30;;;;;;;12.62;100.00;101403.00;4938126;29;20382;-81
2023/08/08 02:43:30;;;;;;;12.38;6.80;;;;;;;12.31;100.00;101347.09;4938036;29;20042;-82
2023/08/08 02:45:55;;;;;;;11.10;6.22;;;;;;;12.63;100.00;101389.13;4937984;29;20067;-82
2023/08/08 02:48:20;;;;;;;14.75;6.43;;;;;;;12.57;100.00;101371.34;4938075;29;20110;-82
2023/08/08 02:50:46;;;;;;;13.88;6.35;;;;;;;12.59;100.00;101372.09;4937967;29;20171;-82
2023/08/08 02:53:11;;;;;;;11.45;6.75;;;;;;;12.39;100.00;101333.66;4938120;29;20071;-81
2023/08/08 02:55:37;;;;;;;15.85;6.65;;;;;;;12.69;100.00;101374.94;4937917;29;20517;-81
2023/08/08 02:58:02;;;;;;;17.20;7.40;;;;;;;12.68;100.00;101380.22;4938068;29;20482;-81
2023/08/08 03:00:27;;;;;;;12.73;6.35;;;;;;;12.69;100.00;101371.53;4937845;29;20023;-82
2023/08/08 03:02:53;;;;;;;17.45;7.10;;;;;;;12.68;100.00;101372.44;4937769;29;20046;-81
2023/08/08 03:05:19;;;;;;;12.77;6.53;;;;;;;12.67;100.00;101379.38;4937515;29;20072;-82
2023/08/08 03:07:44;;;;;;;12.18;7.05;;;;;;;12.62;100.00;101379.69;4937048;29;20032;-82
2023/08/08 03:10:10;;;;;;;14.60;7.38;;;;;;;12.60;100.00;101389.31;4937555;29;20080;-82
2023/08/08 03:12:37;;;;;;;13.27;7.07;;;;;;;12.55;100.00;101380.97;4937414;29;20536;-81
2023/08/08 03:15:04;;;;;;;15.75;7.70;;;;;;;12.53;100.00;101385.44;4937576;29;20156;-81
2023/08/08 03:17:29;;;;;;;17.63;7.78;;;;;;;12.32;100.00;101364.28;4937656;29;20086;-81
2023/08/08 03:19:55;;;;;;;16.35;8.02;;;;;;;12.49;100.00;101386.56;4937439;29;20473;-82
2023/08/08 03:22:20;;;;;;;14.60;7.72;;;;;;;12.28;100.00;101344.66;4937356;29;20114;-82
2023/08/08 03:24:45;;;;;;;17.58;7.38;;;;;;;12.32;100.00;101364.28;4937362;29;20031;-81
2023/08/08 03:27:11;;;;;;;14.73;7.45;;;;;;;12.13;100.00;101332.69;4937508;29;20050;-81
2023/08/08 03:29:36;;;;;;;20.88;8.73;;;;;;;12.36;100.00;101375.28;4937288;29;20035;-80
2023/08/08 03:32:03;;;;;;;17.15;8.73;;;;;;;12.33;100.00;101375.47;4937263;29;20024;-80
2023/08/08 03:34:29;;;;;;;16.67;8.20;;;;;;;12.23;100.00;101361.44;4937411;29;20051;-81
2023/08/08 03:36:54;;;;;;;13.27;7.78;;;;;;;11.98;100.00;101336.19;4937287;29;20493;-81
2023/08/08 03:39:20;;;;;;;15.55;8.75;;;;;;;12.28;100.00;101382.69;4936977;29;20035;-81
2023/08/08 03:41:45;;;;;;;14.75;8.10;;;;;;;12.25;100.00;101382.88;4936917;29;20084;-81
2023/08/08 03:44:10;;;;;;;16.92;8.88;;;;;;;12.01;100.00;101343.78;4937144;29;20023;-80
2023/08/08 03:46:36;;;;;;;17.13;8.10;;;;;;;12.23;100.00;101372.63;4937035;29;20023;-81
2023/08/08 03:49:01;;;;;;;18.83;8.40;;;;;;;12.21;100.00;101371.88;4937171;29;20481;-80
2023/08/08 03:51:27;;;;;;;17.00;9.35;;;;;;;12.22;100.00;101373.53;4936838;29;20046;-80
2023/08/08 03:53:52;;;;;;;17.73;9.55;;;;;;;12.24;100.00;101369.09;4936837;29;20044;-80
2023/08/08 03:56:17;;;;;;;18.33;9.40;;;;;;;12.22;100.00;101372.72;4937014;29;20031;-80
2023/08/08 03:58:43;;;;;;;20.75;9.57;;;;;;;12.10;100.00;101348.41;4936959;29;20020;-80
2023/08/08 04:01:08;;;;;;;15.93;9.23;;;;;;;12.11;100.00;101372.53;4936760;29;20035;-81
2023/08/08 04:03:33;;;;;;;22.70;10.10;;;;;;;12.04;100.00;101364.31;4936645;29;20044;-81
2023/08/08 04:05:59;;;;;;;19.67;10.80;;;;;;;11.73;100.00;101322.13;4936580;29;20503;-80
2023/08/08 04:08:24;;;;;;;16.75;9.82;;;;;;;11.99;100.00;101366.31;4936630;29;20545;-80
2023/08/08 04:10:49;;;;;;;21.83;10.07;;;;;;;11.95;100.00;101364.84;4936571;29;20040;-80
2023/08/08 04:13:15;;;;;;;22.45;10.10;;;;;;;11.91;100.00;101360.78;4936736;29;20023;-80
2023/08/08 04:15:40;;;;;;;18.92;10.73;;;;;;;11.69;100.00;101319.78;4936563;29;20375;-80
2023/08/08 04:18:08;;;;;;;21.27;11.20;;;;;;;11.82;100.00;101345.81;4936233;29;20023;-80
2023/08/08 04:20:34;;;;;;;19.30;10.02;;;;;;;11.76;100.00;101345.22;4936035;29;20028;-81
2023/08/08 04:23:00;;;;;;;21.75;9.80;;;;;;;11.84;100.00;101357.72;4936438;29;20044;-80
2023/08/08 04:25:25;;;;;;;29.50;12.18;;;;;;;11.59;100.00;101316.91;4936378;29;20111;-81
2023/08/08 04:27:51;;;;;;;23.42;11.27;;;;;;;11.82;100.00;101358.75;4936464;29;20396;-81
2023/08/08 04:30:16;;;;;;;21.00;10.93;;;;;;;11.58;100.00;101317.00;4936220;29;20381;-82
2023/08/08 04:32:42;;;;;;;20.95;11.23;;;;;;;11.80;100.00;101351.09;4936145;29;20114;-81
2023/08/08 04:35:07;;;;;;;18.13;10.60;;;;;;;11.69;100.00;101330.97;4936253;29;20114;-81
2023/08/08 04:37:32;;;;;;;22.77;11.32;;;;;;;11.86;100.00;101355.88;4936189;29;20414;-80
2023/08/08 04:39:58;;;;;;;21.48;11.02;;;;;;;11.87;100.00;101361.88;4935952;29;20027;-80
2023/08/08 04:42:23;;;;;;;22.20;11.70;;;;;;;11.85;100.00;101359.41;4936062;29;20040;-80
2023/08/08 04:44:48;;;;;;;20.08;10.25;;;;;;;11.93;100.00;101358.94;4918427;29;20045;-81
2023/08/08 04:47:13;;;;;;;21.98;10.60;;;;;;;11.93;100.00;101362.38;4935948;29;20028;-80
2023/08/08 04:49:39;;;;;;;25.15;11.70;;;;;;;11.98;100.00;101367.25;4935785;29;20030;-81
2023/08/08 04:52:05;;;;;;;21.10;11.13;;;;;;;12.00;100.00;101368.00;4935950;29;20115;-80
2023/08/08 04:54:30;;;;;;;22.00;10.35;;;;;;;12.00;100.00;101366.25;4935776;29;20079;-79
2023/08/08 04:56:55;;;;;;;19.50;11.05;;;;;;;12.05;100.00;101366.78;4935846;29;20028;-80
2023/08/08 04:59:21;;;;;;;23.52;10.45;;;;;;;12.01;100.00;101341.19;4935846;29;20031;-80
2023/08/08 05:01:46;;;;;;;21.95;10.93;;;;;;;12.19;100.00;101349.56;4935555;29;20115;-80
2023/08/08 05:04:11;;;;;;;22.52;10.05;;;;;;;12.39;100.00;101345.75;4935546;29;20482;-81
2023/08/08 05:06:37;;;;;;;19.60;9.88;;;;;;;12.44;100.00;101341.97;4935684;29;20028;-80
2023/08/08 05:09:02;;;;;;;16.02;9.25;;;;;;;12.19;100.00;101300.38;4935743;29;20028;-80
2023/08/08 05:11:28;;;;;;;24.05;9.90;;;;;;;12.41;100.00;101342.16;4935573;29;20024;-79
2023/08/08 05:13:54;;;;;;;18.20;9.35;;;;;;;12.48;100.00;101351.19;4935801;29;20031;-79
2023/08/08 05:16:19;;;;;;;16.75;9.13;;;;;;;12.46;100.00;101345.28;4935440;29;20401;-79
2023/08/08 05:18:45;;;;;;;20.02;9.18;;;;;;;12.45;100.00;101338.44;4935456;29;20381;-79
2023/08/08 05:21:10;;;;;;;18.20;9.13;;;;;;;13.14;100.00;101358.19;4935564;29;20054;-80
2023/08/08 05:23:36;;;;;;;21.25;8.80;;;;;;;14.03;100.00;101355.69;4935553;29;20034;-80
2023/08/08 05:26:01;;;;;;;15.43;7.72;;;;;;;14.63;100.00;101365.34;4915492;29;20446;-80
2023/08/08 05:28:27;;;;;;;15.35;7.75;;;;;;;14.96;100.00;101321.44;4932157;29;20031;-84
2023/08/08 05:30:52;;;;;;;13.40;6.93;;;;;;;15.79;100.00;101374.16;4934957;29;20036;-82
2023/08/08 05:33:18;;;;;;;15.13;6.25;;;;;;;15.73;100.00;101370.28;4935377;29;20027;-82
2023/08/08 05:35:43;;;;;;;18.38;7.80;;;;;;;15.64;100.00;101370.97;4935227;29;20404;-82
2023/08/08 05:38:08;;;;;;;14.52;6.50;;;;;;;15.11;100.00;101326.31;4935369;29;20030;-81
2023/08/08 05:40:36;;;;;;;11.00;5.97;;;;;;;15.00;100.00;101354.06;4935283;29;20047;-83
2023/08/08 05:43:01;;;;;;;14.45;6.32;;;;;;;15.02;100.00;101379.00;4935274;29;20040;-83
2023/08/08 05:45:27;;;;;;;13.45;6.35;;;;;;;15.20;100.00;101356.84;4935230;29;20377;-82
2023/08/08 05:47:52;;;;;;;14.00;6.35;;;;;;;15.43;100.00;101370.75;4935186;29;20526;-83
2023/08/08 05:50:17;;;;;;;14.13;6.95;;;;;;;16.11;100.00;101363.88;4935112;29;20030;-82
2023/08/08 05:52:43;;;;;;;12.55;6.22;;;;;;;16.39;97.63;101356.50;4935190;29;20042;-83
2023/08/08 05:55:09;;;;;;;15.35;6.65;;;;;;;16.03;99.99;101367.09;4935201;29;20050;-82
2023/08/08 05:57:34;;;;;;;14.85;5.93;;;;;;;16.33;98.86;101370.84;4935127;29;20028;-81
2023/08/08 05:59:59;;;;;;;12.55;5.80;;;;;;;16.26;98.86;101341.00;4935067;29;20086;-80
2023/08/08 06:02:25;;;;;;;10.00;5.53;;;;;;;17.35;93.84;101380.88;4934901;29;20489;-83
2023/08/08 06:04:50;;;;;;;18.77;6.00;;;;;;;17.93;88.40;101376.00;4935019;29;20025;-83
2023/08/08 06:07:15;;;;;;;9.38;5.10;;;;;;;17.70;87.69;101372.75;4935019;29;20545;-82
2023/08/08 06:09:41;;;;;;;13.63;6.22;;;;;;;17.10;91.31;101376.00;4917264;29;20035;-81
2023/08/08 06:12:07;;;;;;;11.63;5.72;;;;;;;17.61;90.57;101360.41;4916325;29;20036;-81
2023/08/08 06:14:32;;;;;;;14.43;5.32;;;;;;;18.56;85.32;101358.28;4915982;29;20371;-82
2023/08/08 06:16:58;;;;;;;13.45;5.15;;;;;;;19.20;80.97;101373.53;4898911;29;20035;-83
2023/08/08 06:19:23;;;;;;;12.43;5.18;;;;;;;19.08;79.81;101364.16;4915764;29;20031;-82
2023/08/08 06:21:48;;;;;;;9.27;5.05;;;;;;;19.20;78.57;101351.75;4915566;29;20387;-84
2023/08/08 06:24:14;;;;;;;12.18;4.80;;;;;;;19.14;78.86;101360.97;4915715;29;20390;-86
2023/08/08 06:26:39;;;;;;;9.15;4.93;;;;;;;18.77;80.57;101387.00;4915777;29;20040;-83
2023/08/08 06:29:05;;;;;;;12.75;4.95;;;;;;;18.24;82.42;101381.22;4915885;29;20028;-79
2023/08/08 06:31:30;;;;;;;12.40;5.72;;;;;;;17.74;84.64;101383.75;4915666;29;20036;-86
2023/08/08 06:33:55;;;;;;;10.20;5.22;;;;;;;17.37;87.15;101389.38;4915581;29;20032;-81
2023/08/08 06:36:21;;;;;;;12.60;5.40;;;;;;;16.96;89.11;101381.50;4898648;29;20032;-78
2023/08/08 06:38:46;;;;;;;10.77;5.00;;;;;;;17.13;89.52;101380.97;4915874;29;20086;-79
2023/08/08 06:41:12;;;;;;;12.32;5.45;;;;;;;17.35;91.06;101373.03;4915640;29;20204;-77
2023/08/08 06:43:39;;;;;;;10.60;5.50;;;;;;;18.57;84.26;101373.03;4917379;29;20513;-79
2023/08/08 06:46:04;;;;;;;12.77;5.32;;;;;;;19.91;76.49;101375.72;4919479;29;20394;-79
2023/08/08 06:48:33;;;;;;;11.50;5.28;;;;;;;20.24;73.98;101345.47;4919065;29;20035;-80
2023/08/08 06:50:58;;;;;;;11.70;5.15;;;;;;;21.14;70.24;101386.59;4919069;29;20032;-79
2023/08/08 06:53:23;;;;;;;9.25;4.68;;;;;;;21.80;66.09;101389.69;4919109;29;20493;-78
2023/08/08 06:55:49;;;;;;;11.82;4.93;;;;;;;21.89;63.93;101389.56;4919040;29;20032;-80
2023/08/08 06:58:14;;;;;;;11.05;4.88;;;;;;;21.44;64.99;101393.25;4919079;29;20064;-81
2023/08/08 07:00:39;;;;;;;10.95;4.50;;;;;;;21.13;66.81;101384.91;4918826;29;20115;-80
2023/08/08 07:03:05;;;;;;;8.65;4.93;;;;;;;21.04;67.47;101388.47;4918899;29;20035;-80
2023/08/08 07:05:30;;;;;;;11.90;4.90;;;;;;;20.74;68.46;101389.66;4918750;29;20517;-80
2023/08/08 07:07:55;;;;;;;11.73;4.90;;;;;;;20.36;69.41;101361.84;4918739;29;20031;-80
2023/08/08 07:10:21;;;;;;;9.30;4.07;;;;;;;20.51;68.85;101388.44;4918779;29;20024;-80
2023/08/08 07:12:46;;;;;;;10.45;4.78;;;;;;;20.80;69.29;101389.06;4918923;29;20032;-80
2023/08/08 07:15:12;;;;;;;8.90;4.78;;;;;;;21.47;65.51;101395.56;4918628;29;20033;-80
2023/08/08 07:17:38;;;;;;;9.32;4.28;;;;;;;21.85;63.47;101369.03;4918691;29;20044;-80
2023/08/08 07:20:05;;;;;;;9.40;3.40;;;;;;;22.30;61.14;101387.97;4918672;29;20106;-79
2023/08/08 07:22:32;;;;;;;9.40;3.60;;;;;;;22.90;59.86;101339.56;4918402;29;20052;-81
2023/08/08 07:24:57;;;;;;;6.80;3.17;;;;;;;23.92;58.22;101386.41;4901504;29;20111;-80
2023/08/08 07:27:22;;;;;;;7.47;3.35;;;;;;;23.58;55.50;101372.59;4918487;29;20453;-80
2023/08/08 07:29:48;;;;;;;5.68;2.58;;;;;;;22.57;60.38;101386.06;4918512;29;20035;-80
2023/08/08 07:32:13;;;;;;;5.70;2.58;;;;;;;21.20;63.21;101353.63;4918369;29;20028;-80
2023/08/08 07:34:38;;;;;;;7.88;2.47;;;;;;;20.55;67.42;101366.16;4918374;29;20024;-81
2023/08/08 07:37:05;;;;;;;7.78;2.88;;;;;;;20.06;69.81;101376.09;4918524;29;20493;-80
2023/08/08 07:39:30;;;;;;;5.82;2.60;;;;;;;19.62;72.18;101378.44;4916582;29;20119;-77
2023/08/08 07:41:57;;;;;;;7.07;2.50;;;;;;;19.23;74.98;101346.22;4918752;29;20115;-81
2023/08/08 07:44:22;;;;;;;7.18;2.65;;;;;;;19.24;73.53;101371.44;4918585;29;20035;-81
2023/08/08 07:46:48;;;;;;;6.22;2.13;;;;;;;19.24;73.09;101376.66;4917830;29;20024;-82
2023/08/08 07:49:13;;;;;;;7.13;2.40;;;;;;;19.40;74.10;101370.88;4917761;29;20040;-80
2023/08/08 07:51:38;;;;;;;8.20;2.03;;;;;;;19.46;74.33;101367.66;4918021;29;20104;-81
2023/08/08 07:54:08;;;;;;;5.15;1.98;;;;;;;19.50;74.84;101371.69;4917701;29;20032;-81
2023/08/08 07:56:34;;;;;;;6.90;2.50;;;;;;;19.23;72.16;101368.97;4916610;29;20074;-80
2023/08/08 07:58:59;;;;;;;5.10;2.30;;;;;;;19.25;75.85;101369.63;4917858;29;20052;-81
2023/08/08 08:01:27;;;;;;;5.40;1.98;;;;;;;19.20;74.92;101341.28;4917509;29;20048;-80
2023/08/08 08:03:52;;;;;;;4.65;1.80;;;;;;;19.51;73.65;101373.31;4917851;29;20115;-80
2023/08/08 08:06:17;;;;;;;7.07;2.10;;;;;;;19.46;74.75;101351.97;4917592;29;20080;-80
2023/08/08 08:08:43;;;;;;;7.07;1.77;;;;;;;19.73;72.43;101374.81;4917718;29;20044;-79
2023/08/08 08:11:08;;;;;;;7.07;2.10;;;;;;;19.73;70.07;101378.25;4917449;29;20032;-79
2023/08/08 08:13:33;;;;;;;4.05;1.95;;;;;;;19.77;72.50;101384.06;4917410;29;20042;-80
2023/08/08 08:16:02;;;;;;;6.10;2.20;;;;;;;19.56;73.11;101351.97;4917417;29;20059;-81
2023/08/08 08:18:28;;;;;;;4.70;2.10;;;;;;;19.68;71.01;101364.78;4917025;29;20028;-79
2023/08/08 08:20:55;;;;;;;9.20;2.42;;;;;;;19.66;72.24;101348.34;4917029;29;20024;-79
2023/08/08 08:23:20;;;;;;;7.55;2.40;;;;;;;19.33;73.06;101299.06;4917491;29;20028;-81
2023/08/08 08:25:45;;;;;;;6.00;2.22;;;;;;;19.84;75.82;101371.19;4917423;29;20390;-81
2023/08/08 08:28:11;;;;;;;6.43;2.17;;;;;;;19.88;71.77;101375.19;4915731;29;20028;-84
2023/08/08 08:30:36;;;;;;;4.15;2.10;;;;;;;19.60;72.35;101311.44;4917215;29;20024;-84
2023/08/08 08:33:03;;;;;;;5.47;1.77;;;;;;;19.98;73.39;101379.44;4917639;29;20028;-83
2023/08/08 08:35:29;;;;;;;5.18;1.70;;;;;;;19.73;67.38;101349.44;4917139;29;20040;-82
2023/08/08 08:37:54;;;;;;;5.60;1.80;;;;;;;19.96;69.71;101381.38;4917349;29;20478;-83
2023/08/08 08:40:20;;;;;;;4.82;1.50;;;;;;;19.70;68.86;101343.66;4917188;29;20470;-83
2023/08/08 08:42:47;;;;;;;4.68;1.83;;;;;;;19.69;66.25;101365.59;4899650;29;20538;-83
2023/08/08 08:45:14;;;;;;;5.07;1.63;;;;;;;19.74;68.64;101369.44;4917064;29;20028;-81
2023/08/08 08:47:42;;;;;;;4.65;1.65;;;;;;;19.83;70.19;101374.78;4916686;29;20034;-81
2023/08/08 08:50:08;;;;;;;4.75;1.30;;;;;;;20.01;67.84;101363.41;4916916;29;20028;-81
2023/08/08 08:52:33;;;;;;;5.90;1.70;;;;;;;20.15;64.68;101374.38;4916951;29;20031;-79
2023/08/08 08:54:59;;;;;;;5.43;1.30;;;;;;;20.00;66.48;101337.34;4916950;29;20064;-80
2023/08/08 08:57:25;;;;;;;5.18;1.73;;;;;;;20.09;64.01;101351.38;4916999;29;20059;-80
2023/08/08 08:59:51;;;;;;;5.03;1.55;;;;;;;20.19;68.71;101367.88;4916961;29;20107;-80
2023/08/08 09:02:18;;;;;;;4.80;1.48;;;;;;;20.26;65.58;101379.44;4899796;29;20505;-80
2023/08/08 09:04:45;;;;;;;7.88;1.70;;;;;;;20.01;67.72;101349.47;4916965;29;20046;-80
2023/08/08 09:07:11;;;;;;;3.85;1.52;;;;;;;20.25;70.73;101373.34;4916031;29;20099;-79
2023/08/08 09:09:37;;;;;;;4.32;1.45;;;;;;;20.13;65.62;101348.28;4916709;29;20123;-80
2023/08/08 09:12:04;;;;;;;4.97;1.52;;;;;;;19.99;65.82;101344.38;4916769;29;20036;-80
2023/08/08 09:14:31;;;;;;;3.88;1.70;;;;;;;20.16;65.25;101383.91;4916692;29;20438;-83
2023/08/08 09:16:57;;;;;;;3.88;1.55;;;;;;;19.73;65.74;101320.59;4916474;29;20060;-78
2023/08/08 09:19:23;;;;;;;4.97;1.63;;;;;;;19.97;71.90;101392.69;4914941;29;20032;-81
2023/08/08 09:21:50;;;;;;;5.82;1.85;;;;;;;19.61;71.06;101368.91;4916800;29;20154;-81
2023/08/08 09:24:16;;;;;;;5.50;1.70;;;;;;;19.41;71.61;101354.19;4899134;29;20422;-79
2023/08/08 09:26:43;;;;;;;6.82;1.63;;;;;;;19.35;70.91;101386.16;4915344;29;20032;-77
2023/08/08 09:29:10;;;;;;;5.07;1.88;;;;;;;18.82;69.60;101314.16;4916449;29;20602;-79
2023/08/08 09:31:36;;;;;;;5.72;1.58;;;;;;;19.35;69.62;101394.84;4916359;29;20076;-79
2023/08/08 09:34:03;;;;;;;5.53;1.48;;;;;;;19.20;69.80;101383.16;4916444;29;20028;-80
2023/08/08 09:36:28;;;;;;;5.18;2.00;;;;;;;19.44;69.74;101390.56;4915073;29;20493;-80
2023/08/08 09:38:55;;;;;;;10.00;2.00;;;;;;;19.44;68.96;101378.28;4916227;29;20060;-81
2023/08/08 09:41:24;;;;;;;5.60;1.73;;;;;;;19.61;67.58;101397.75;4916011;29;20055;-80
2023/08/08 09:43:51;;;;;;;6.03;1.77;;;;;;;19.66;69.02;101403.38;4922842;23;20533;-80
2023/08/08 09:46:18;;;;;;;7.22;2.17;;;;;;;19.72;68.92;101397.56;4916278;29;20033;-80
2023/08/08 09:48:44;;;;;;;4.82;1.67;;;;;;;19.45;70.12;101326.72;4916196;29;20036;-79
2023/08/08 09:51:09;;;;;;;4.28;1.80;;;;;;;19.84;68.01;101405.25;4915983;29;20040;-80
2023/08/08 09:53:35;;;;;;;6.97;2.10;;;;;;;19.81;68.94;101395.91;4916325;29;20032;-81
2023/08/08 09:56:04;;;;;;;6.25;1.75;;;;;;;19.56;66.98;101365.88;4916120;29;20032;-78
2023/08/08 09:58:30;;;;;;;3.83;1.50;;;;;;;19.34;66.95;101306.78;4915756;29;20043;-79
2023/08/08 10:00:55;;;;;;;4.82;1.60;;;;;;;19.89;64.02;101387.31;4916006;29;20395;-81
2023/08/08 10:03:22;;;;;;;5.25;1.75;;;;;;;19.17;65.83;101284.78;4915635;29;20083;-79
2023/08/08 10:05:47;;;;;;;5.32;1.42;;;;;;;19.27;64.96;101310.09;4914377;29;20513;-80
2023/08/08 10:08:16;;;;;;;3.72;1.27;;;;;;;19.86;67.30;101392.84;4915771;29;20052;-82
2023/08/08 10:10:44;;;;;;;4.35;1.50;;;;;;;19.83;63.90;101369.53;4915862;29;20453;-79
2023/08/08 10:13:10;;;;;;;3.67;1.40;;;;;;;19.87;63.18;101382.22;4915839;29;20036;-79
2023/08/08 10:15:39;;;;;;;5.53;1.40;;;;;;;19.70;61.07;101362.84;4898771;29;20106;-79
2023/08/08 10:18:06;;;;;;;6.47;1.70;;;;;;;20.01;61.40;101388.78;4918252;29;20035;-80
2023/08/08 10:20:35;;;;;;;5.43;1.35;;;;;;;20.19;64.04;101373.13;4918178;29;20043;-80
2023/08/08 10:30:48;;;;;;;4.00;1.50;;;;;;;20.53;62.44;101289.41;5084016;23;20510;-83
2023/08/08 10:33:28;;;;;;;5.00;1.35;;;;;;;21.20;61.62;101385.16;4919550;29;20028;-83
2023/08/08 10:35:57;;;;;;;4.88;1.58;;;;;;;21.01;59.14;101382.69;4919448;29;20020;-83
2023/08/08 10:38:26;;;;;;;5.55;1.60;;;;;;;20.44;60.61;101324.41;4919205;29;20028;-81
2023/08/08 10:40:59;;;;;;;4.43;1.52;;;;;;;20.43;59.17;101381.28;4919148;29;20056;-80
2023/08/08 10:43:29;;;;;;;4.28;1.40;;;;;;;19.98;61.86;101307.81;4919059;29;20032;-80
2023/08/08 10:46:01;;;;;;;5.57;1.58;;;;;;;20.07;59.81;101317.44;4919188;29;20052;-81
2023/08/08 10:48:27;;;;;;;4.45;1.90;;;;;;;20.32;60.22;101363.09;4902177;29;20385;-81
2023/08/08 10:50:58;;;;;;;4.55;1.48;;;;;;;20.45;61.09;101394.25;4919027;29;20043;-85
2023/08/08 10:53:29;;;;;;;4.10;1.33;;;;;;;19.91;60.94;101293.63;4918960;29;20032;-79
2023/08/08 10:56:03;;;;;;;4.22;1.60;;;;;;;20.10;60.67;101324.19;4919078;29;20039;-83
2023/08/08 10:58:46;;;;;;;5.30;1.50;;;;;;;20.05;60.99;101298.38;4918938;29;20036;-79
2023/08/08 11:01:12;;;;;;;7.28;1.75;;;;;;;20.28;62.53;101318.00;4918864;29;20549;-80
2023/08/08 11:03:39;;;;;;;4.78;1.42;;;;;;;20.48;60.91;101337.09;4918938;29;20036;-80
2023/08/08 11:06:09;;;;;;;4.47;1.60;;;;;;;20.77;59.65;101354.44;4918921;29;20476;-80
2023/08/08 11:08:37;;;;;;;6.00;1.40;;;;;;;20.65;60.71;101329.34;4918616;29;20031;-81
2023/08/08 11:11:04;;;;;;;3.60;1.40;;;;;;;20.80;56.63;101367.25;4918554;29;20051;-81
2023/08/08 11:13:30;;;;;;;3.88;1.25;;;;;;;19.72;57.16;101208.09;4917473;29;20028;-81
2023/08/08 11:15:56;;;;;;;4.10;1.30;;;;;;;19.75;56.74;101237.44;4918678;29;20075;-81
2023/08/08 11:18:21;;;;;;;4.20;1.35;;;;;;;20.79;59.09;101387.41;4918614;29;20467;-80
2023/08/08 11:20:48;;;;;;;2.90;1.27;;;;;;;20.78;58.00;101372.66;4918739;29;20048;-80